Wetterstation Vordersexau
Wetterdaten: Woche 07.12.15 - 13.12.15 (KW50)
Datum Zeit Temp. A. Feuchte A. Luftdruck Regen Wind Richtung Taupunkt Windchill Windben
07.12.2015 00:00 9,2 C 85 % 1029,1 hPa 0,0 l/m 0,0 km/h O-SO 6,8 C 9,2 C 0,0 km/h
07.12.2015 01:00 8,6 C 86 % 1029,1 hPa 0,0 l/m 0,0 km/h O-SO 6,4 C 8,6 C 0,0 km/h
07.12.2015 02:00 8,0 C 87 % 1029,3 hPa 0,0 l/m 0,0 km/h O 6,0 C 8,0 C 0,0 km/h
07.12.2015 03:00 7,6 C 87 % 1029,4 hPa 0,0 l/m 0,0 km/h SO 5,6 C 7,6 C 0,0 km/h
07.12.2015 04:00 8,1 C 87 % 1029,4 hPa 0,0 l/m 0,0 km/h O-SO 6,1 C 8,1 C 0,0 km/h
07.12.2015 05:00 7,6 C 87 % 1030,0 hPa 0,0 l/m 0,0 km/h SO 5,6 C 7,6 C 0,0 km/h
07.12.2015 06:00 7,3 C 88 % 1030,3 hPa 0,0 l/m 0,0 km/h O-SO 5,4 C 7,3 C 0,0 km/h
07.12.2015 07:00 7,1 C 88 % 1030,2 hPa 0,0 l/m 0,0 km/h O 5,2 C 7,1 C 0,0 km/h
07.12.2015 08:00 7,2 C 88 % 1030,5 hPa 0,0 l/m 0,0 km/h SO 5,3 C 7,2 C 0,0 km/h
07.12.2015 09:00 8,4 C 88 % 1030,5 hPa 0,0 l/m 1,9 km/h N-NO 6,5 C 8,4 C 1,1 km/h
07.12.2015 10:00 9,5 C 86 % 1030,6 hPa 0,0 l/m 0,6 km/h S-SO 7,3 C 9,5 C 0,4 km/h
07.12.2015 11:00 16,6 C 70 % 1030,3 hPa 0,0 l/m 13,6 km/h SO 11,1 C 13,6 C 7,6 km/h
07.12.2015 12:00 19,4 C 61 % 1029,5 hPa 0,0 l/m 0,0 km/h NW 11,7 C 19,4 C 0,0 km/h
07.12.2015 13:00 20,5 C 57 % 1028,8 hPa 0,0 l/m 0,0 km/h NW 11,7 C 20,5 C 0,0 km/h
07.12.2015 14:00 22,4 C 48 % 1028,4 hPa 0,0 l/m 0,0 km/h NW 10,8 C 22,4 C 0,0 km/h
07.12.2015 15:00 23,3 C 45 % 1028,4 hPa 0,0 l/m 0,0 km/h SO 10,7 C 23,3 C 0,0 km/h
07.12.2015 16:00 12,8 C 64 % 1028,7 hPa 0,0 l/m 0,0 km/h SO 6,2 C 12,8 C 0,0 km/h
07.12.2015 17:00 8,4 C 78 % 1028,9 hPa 0,0 l/m 0,0 km/h SO 4,8 C 8,4 C 0,0 km/h
07.12.2015 18:00 6,9 C 83 % 1029,2 hPa 0,0 l/m 0,0 km/h O-SO 4,2 C 6,9 C 0,0 km/h
07.12.2015 19:00 6,7 C 86 % 1029,9 hPa 0,0 l/m 0,0 km/h O-SO 4,5 C 6,7 C 0,0 km/h
07.12.2015 20:00 5,4 C 86 % 1029,9 hPa 0,0 l/m 0,0 km/h NO 3,3 C 5,4 C 0,0 km/h
07.12.2015 21:00 5,4 C 88 % 1029,9 hPa 0,0 l/m 0,0 km/h O-NO 3,6 C 5,4 C 0,0 km/h
07.12.2015 22:00 4,3 C 88 % 1030,1 hPa 0,0 l/m 0,0 km/h O-NO 2,5 C 4,3 C 0,0 km/h
07.12.2015 23:00 3,2 C 88 % 1030,2 hPa 0,0 l/m 0,0 km/h SO 1,4 C 3,2 C 0,0 km/h
08.12.2015 00:00 3,3 C 88 % 1030,0 hPa 0,0 l/m 0,0 km/h O-SO 1,5 C 3,3 C 0,0 km/h
08.12.2015 01:00 2,4 C 88 % 1029,6 hPa 0,0 l/m 0,0 km/h O-SO 0,6 C 2,4 C 0,0 km/h
08.12.2015 02:00 2,2 C 88 % 1029,6 hPa 0,0 l/m 0,0 km/h O-SO 0,4 C 2,2 C 0,0 km/h
08.12.2015 03:00 1,0 C 89 % 1029,4 hPa 0,0 l/m 0,0 km/h O-SO -0,6 C 1,0 C 0,0 km/h
08.12.2015 04:00 1,2 C 88 % 1029,1 hPa 0,0 l/m 0,0 km/h O-SO -0,6 C 1,2 C 0,0 km/h
08.12.2015 05:00 0,9 C 89 % 1029,1 hPa 0,0 l/m 0,0 km/h O-SO -0,7 C 0,9 C 0,0 km/h
08.12.2015 06:00 0,3 C 89 % 1029,2 hPa 0,0 l/m 0,0 km/h O-SO -1,3 C 0,3 C 0,0 km/h
08.12.2015 07:00 0,1 C 89 % 1029,3 hPa 0,0 l/m 0,0 km/h NO -1,5 C 0,1 C 0,0 km/h
08.12.2015 08:00 0,5 C 88 % 1030,0 hPa 0,0 l/m 0,0 km/h NO -1,3 C 0,5 C 0,0 km/h
08.12.2015 09:00 7,3 C 88 % 1030,1 hPa 0,0 l/m 0,0 km/h NO 5,4 C 7,3 C 0,0 km/h
08.12.2015 10:00 12,1 C 76 % 1030,1 hPa 0,0 l/m 0,0 km/h NO 8,0 C 12,1 C 0,0 km/h
08.12.2015 11:00 14,1 C 68 % 1029,6 hPa 0,0 l/m 0,0 km/h O-SO 8,3 C 14,1 C 0,0 km/h
08.12.2015 12:00 14,9 C 66 % 1028,9 hPa 0,0 l/m 0,0 km/h W 8,6 C 14,9 C 0,0 km/h
08.12.2015 13:00 15,3 C 65 % 1028,5 hPa 0,0 l/m 0,0 km/h O-SO 8,8 C 15,3 C 0,0 km/h
08.12.2015 14:00 18,2 C 56 % 1027,9 hPa 0,0 l/m 0,0 km/h W-SW 9,3 C 18,2 C 0,0 km/h
08.12.2015 15:00 19,2 C 51 % 1027,7 hPa 0,0 l/m 0,0 km/h W 8,8 C 19,2 C 0,0 km/h
08.12.2015 16:00 11,2 C 65 % 1028,1 hPa 0,0 l/m 0,0 km/h N-NW 4,9 C 11,2 C 0,0 km/h
08.12.2015 17:00 7,0 C 80 % 1028,5 hPa 0,0 l/m 0,0 km/h N 3,8 C 7,0 C 0,0 km/h
08.12.2015 18:00 5,4 C 84 % 1028,7 hPa 0,0 l/m 0,0 km/h O-NO 2,9 C 5,4 C 0,0 km/h
08.12.2015 19:00 5,3 C 86 % 1028,6 hPa 0,0 l/m 0,0 km/h O-NO 3,2 C 5,3 C 0,0 km/h
08.12.2015 20:00 6,8 C 86 % 1028,7 hPa 0,0 l/m 0,0 km/h SO 4,6 C 6,8 C 0,0 km/h
08.12.2015 21:00 6,9 C 86 % 1028,9 hPa 0,0 l/m 0,0 km/h SO 4,7 C 6,9 C 0,0 km/h
08.12.2015 22:00 6,9 C 87 % 1028,8 hPa 0,0 l/m 0,0 km/h NO 4,9 C 6,9 C 0,0 km/h
08.12.2015 23:00 7,7 C 87 % 1028,8 hPa 0,0 l/m 0,0 km/h NO 5,7 C 7,7 C 0,0 km/h
09.12.2015 00:00 7,5 C 87 % 1028,6 hPa 0,0 l/m 0,0 km/h NO 5,5 C 7,5 C 0,0 km/h
09.12.2015 01:00 7,8 C 87 % 1028,8 hPa 0,0 l/m 0,0 km/h N 5,8 C 7,8 C 0,0 km/h
09.12.2015 02:00 8,8 C 88 % 1028,9 hPa 0,0 l/m 0,0 km/h O-SO 6,9 C 8,8 C 0,0 km/h
09.12.2015 03:00 8,9 C 87 % 1029,2 hPa 0,8 l/m 0,0 km/h W-SW 6,9 C 8,9 C 0,0 km/h
09.12.2015 04:00 9,0 C 88 % 1029,2 hPa 1,7 l/m 1,9 km/h W-NW 7,1 C 9,0 C 1,1 km/h
09.12.2015 05:00 8,6 C 87 % 1030,5 hPa 2,5 l/m 2,6 km/h N-NW 6,6 C 8,6 C 1,4 km/h
09.12.2015 06:00 8,1 C 87 % 1031,9 hPa 0,0 l/m 0,0 km/h N-NW 6,1 C 8,1 C 0,0 km/h
09.12.2015 07:00 7,4 C 88 % 1032,7 hPa 0,0 l/m 0,0 km/h N-NW 5,5 C 7,4 C 0,0 km/h
09.12.2015 08:00 7,2 C 88 % 1033,5 hPa 0,0 l/m 0,0 km/h N 5,3 C 7,2 C 0,0 km/h
09.12.2015 09:00 7,6 C 88 % 1034,5 hPa 0,0 l/m 0,0 km/h N 5,7 C 7,6 C 0,0 km/h
09.12.2015 10:00 9,2 C 85 % 1035,7 hPa 0,0 l/m 0,0 km/h NW 6,8 C 9,2 C 0,0 km/h
09.12.2015 11:00 13,0 C 83 % 1035,6 hPa 0,0 l/m 0,0 km/h W 10,2 C 13,0 C 0,0 km/h
09.12.2015 12:00 11,3 C 75 % 1035,6 hPa 0,0 l/m 1,3 km/h NW 7,0 C 11,3 C 0,7 km/h
09.12.2015 13:00 13,1 C 65 % 1035,5 hPa 0,0 l/m 0,0 km/h NW 6,7 C 13,1 C 0,0 km/h
09.12.2015 14:00 14,3 C 58 % 1035,6 hPa 0,0 l/m 0,0 km/h W-NW 6,2 C 14,3 C 0,0 km/h
09.12.2015 15:00 15,9 C 53 % 1036,1 hPa 0,0 l/m 0,0 km/h W-NW 6,3 C 15,9 C 0,0 km/h
09.12.2015 16:00 7,6 C 70 % 1036,5 hPa 0,0 l/m 0,0 km/h W-NW 2,5 C 7,6 C 0,0 km/h
09.12.2015 17:00 4,4 C 82 % 1037,0 hPa 0,0 l/m 0,0 km/h SO 1,6 C 4,4 C 0,0 km/h
09.12.2015 18:00 3,8 C 86 % 1037,3 hPa 0,0 l/m 22,0 km/h O-SO 1,7 C -5,5 C 12,2 km/h
09.12.2015 19:00 3,1 C 87 % 1037,2 hPa 0,0 l/m 0,0 km/h O 1,2 C 3,1 C 0,0 km/h
09.12.2015 20:00 2,4 C 88 % 1037,3 hPa 0,0 l/m 0,0 km/h SO 0,6 C 2,4 C 0,0 km/h
09.12.2015 21:00 1,2 C 88 % 1037,1 hPa 0,0 l/m 0,0 km/h SO -0,6 C 1,2 C 0,0 km/h
09.12.2015 22:00 1,5 C 88 % 1036,7 hPa 0,0 l/m 0,6 km/h SO -0,3 C 1,5 C 0,4 km/h
09.12.2015 23:00 1,3 C 88 % 1036,6 hPa 0,0 l/m 0,0 km/h SO -0,5 C 1,3 C 0,0 km/h
10.12.2015 00:00 0,2 C 88 % 1036,6 hPa 0,0 l/m 0,0 km/h SO -1,5 C 0,2 C 0,0 km/h
10.12.2015 01:00 -0,1 C 88 % 1036,1 hPa 0,0 l/m 7,1 km/h O-SO -1,8 C -0,8 C 4,0 km/h
10.12.2015 02:00 -0,4 C 88 % 1035,8 hPa 0,4 l/m 0,0 km/h O-SO -2,1 C -0,4 C 0,0 km/h
10.12.2015 03:00 -0,6 C 88 % 1035,5 hPa 0,0 l/m 0,0 km/h O-SO -2,3 C -0,6 C 0,0 km/h
10.12.2015 04:00 -0,9 C 88 % 1035,1 hPa 0,0 l/m 0,0 km/h O-SO -2,6 C -0,9 C 0,0 km/h
10.12.2015 05:00 -1,2 C 88 % 1035,0 hPa 0,0 l/m 0,0 km/h O-SO -2,9 C -1,2 C 0,0 km/h
10.12.2015 06:00 -1,4 C 87 % 1034,9 hPa 0,0 l/m 0,0 km/h O-SO -3,3 C -1,4 C 0,0 km/h
10.12.2015 07:00 -2,5 C 88 % 1034,9 hPa 0,0 l/m 0,0 km/h O-SO -4,2 C -2,5 C 0,0 km/h
10.12.2015 08:00 -2,7 C 87 % 1034,6 hPa 0,0 l/m 0,0 km/h O-SO -4,6 C -2,7 C 0,0 km/h
10.12.2015 09:00 5,3 C 89 % 1033,9 hPa 0,0 l/m 0,0 km/h O-NO 3,6 C 5,3 C 0,0 km/h
10.12.2015 10:00 8,4 C 78 % 1033,6 hPa 0,0 l/m 0,0 km/h W 4,8 C 8,4 C 0,0 km/h
10.12.2015 11:00 9,1 C 70 % 1033,1 hPa 0,0 l/m 0,0 km/h W-NW 3,9 C 9,1 C 0,0 km/h
10.12.2015 12:00 9,0 C 68 % 1031,9 hPa 0,0 l/m 1,3 km/h W-NW 3,4 C 9,0 C 0,7 km/h
10.12.2015 13:00 9,0 C 70 % 1031,1 hPa 0,0 l/m 0,0 km/h W 3,8 C 9,0 C 0,0 km/h
10.12.2015 14:00 11,1 C 63 % 1030,4 hPa 0,0 l/m 0,0 km/h W 4,3 C 11,1 C 0,0 km/h
10.12.2015 15:00 12,6 C 58 % 1030,0 hPa 0,0 l/m 0,0 km/h W 4,6 C 12,6 C 0,0 km/h
10.12.2015 16:00 3,1 C 74 % 1030,1 hPa 0,0 l/m 0,0 km/h W -1,1 C 3,1 C 0,0 km/h
10.12.2015 17:00 0,4 C 82 % 1030,2 hPa 0,0 l/m 0,0 km/h W -2,3 C 0,4 C 0,0 km/h
10.12.2015 18:00 -0,2 C 85 % 1030,7 hPa 0,0 l/m 0,0 km/h S-SW -2,4 C -0,2 C 0,0 km/h
10.12.2015 19:00 -0,5 C 86 % 1030,0 hPa 0,0 l/m 0,0 km/h O-SO -2,5 C -0,5 C 0,0 km/h
10.12.2015 20:00 -0,7 C 88 % 1029,2 hPa 0,0 l/m 0,0 km/h O -2,4 C -0,7 C 0,0 km/h
10.12.2015 21:00 -1,5 C 88 % 1029,2 hPa 0,0 l/m 0,0 km/h O-NO -3,2 C -1,5 C 0,0 km/h
10.12.2015 22:00 -1,7 C 88 % 1028,8 hPa 0,0 l/m 0,0 km/h O-NO -3,4 C -1,7 C 0,0 km/h
10.12.2015 23:00 -1,9 C 89 % 1028,5 hPa 0,0 l/m 0,0 km/h N-NO -3,5 C -1,9 C 0,0 km/h
11.12.2015 00:00 -1,6 C 89 % 1028,8 hPa 0,0 l/m 0,0 km/h N-NO -3,2 C -1,6 C 0,0 km/h
11.12.2015 01:00 -1,4 C 89 % 1028,3 hPa 0,0 l/m 0,0 km/h N-NO -3,0 C -1,4 C 0,0 km/h
11.12.2015 02:00 -1,2 C 89 % 1028,3 hPa 0,0 l/m 0,0 km/h N-NO -2,8 C -1,2 C 0,0 km/h
11.12.2015 03:00 -0,4 C 88 % 1027,9 hPa 0,0 l/m 0,0 km/h NO -2,1 C -0,4 C 0,0 km/h
11.12.2015 04:00 -0,7 C 88 % 1027,6 hPa 0,0 l/m 0,0 km/h N-NO -2,4 C -0,7 C 0,0 km/h
11.12.2015 05:00 -0,5 C 88 % 1028,0 hPa 0,0 l/m 0,0 km/h N-NO -2,2 C -0,5 C 0,0 km/h
11.12.2015 06:00 -1,0 C 88 % 1027,3 hPa 0,0 l/m 0,0 km/h N-NO -2,7 C -1,0 C 0,0 km/h
11.12.2015 07:00 -0,4 C 88 % 1028,3 hPa 0,0 l/m 0,6 km/h N-NO -2,1 C -0,4 C 0,4 km/h
11.12.2015 08:00 0,6 C 88 % 1028,3 hPa 0,0 l/m 0,0 km/h SO -1,2 C 0,6 C 0,0 km/h
11.12.2015 09:00 2,9 C 89 % 1027,6 hPa 0,0 l/m 0,0 km/h W-SW 1,3 C 2,9 C 0,0 km/h
11.12.2015 10:00 8,4 C 67 % 1028,4 hPa 0,0 l/m 7,8 km/h W 2,6 C 7,3 C 4,3 km/h
11.12.2015 11:00 11,4 C 60 % 1028,5 hPa 0,0 l/m 11,0 km/h W 3,9 C 8,6 C 6,1 km/h
11.12.2015 12:00 11,9 C 61 % 1028,0 hPa 0,0 l/m 7,8 km/h W-SW 4,6 C 11,0 C 4,3 km/h
11.12.2015 13:00 10,4 C 62 % 1027,2 hPa 0,0 l/m 23,3 km/h W-SW 3,4 C 2,8 C 13,0 km/h
11.12.2015 14:00 10,2 C 66 % 1026,9 hPa 0,0 l/m 20,1 km/h W 4,1 C 3,5 C 11,2 km/h
11.12.2015 15:00 9,3 C 70 % 1027,1 hPa 0,0 l/m 18,8 km/h W-SW 4,1 C 2,8 C 10,4 km/h
11.12.2015 16:00 8,6 C 73 % 1027,0 hPa 0,0 l/m 8,4 km/h SW 4,0 C 7,1 C 4,7 km/h
11.12.2015 17:00 8,8 C 74 % 1027,1 hPa 0,0 l/m 32,4 km/h S-SW 4,4 C -1,5 C 18,0 km/h
11.12.2015 18:00 8,8 C 73 % 1026,8 hPa 0,0 l/m 22,0 km/h S-SW 4,2 C 1,1 C 12,2 km/h
11.12.2015 19:00 8,7 C 72 % 1026,7 hPa 0,0 l/m 18,1 km/h W-SW 3,9 C 2,3 C 10,1 km/h
11.12.2015 20:00 9,1 C 73 % 1026,7 hPa 0,0 l/m 25,3 km/h S 4,5 C 0,5 C 14,0 km/h
11.12.2015 21:00 8,8 C 72 % 1026,4 hPa 0,0 l/m 5,2 km/h S 4,0 C 8,8 C 2,9 km/h
11.12.2015 22:00 8,9 C 71 % 1026,7 hPa 0,0 l/m 25,9 km/h SW 3,9 C 0,1 C 14,4 km/h
11.12.2015 23:00 9,2 C 71 % 1026,6 hPa 0,0 l/m 24,0 km/h S-SW 4,2 C 1,0 C 13,3 km/h
12.12.2015 00:00 9,1 C 72 % 1026,4 hPa 0,0 l/m 21,4 km/h S 4,3 C 1,7 C 11,9 km/h
12.12.2015 01:00 9,1 C 73 % 1025,5 hPa 0,0 l/m 18,1 km/h W-SW 4,5 C 2,8 C 10,1 km/h
12.12.2015 02:00 9,2 C 71 % 1025,3 hPa 0,0 l/m 13,6 km/h W 4,2 C 4,8 C 7,6 km/h
12.12.2015 03:00 9,4 C 69 % 1025,4 hPa 0,0 l/m 9,7 km/h W 4,0 C 7,1 C 5,4 km/h
12.12.2015 04:00 9,2 C 69 % 1025,2 hPa 0,0 l/m 1,9 km/h SW 3,8 C 9,2 C 1,1 km/h
12.12.2015 05:00 9,4 C 68 % 1025,1 hPa 0,0 l/m 21,4 km/h W-SW 3,8 C 2,1 C 11,9 km/h
12.12.2015 06:00 9,6 C 65 % 1025,0 hPa 0,0 l/m 17,5 km/h S-SW 3,4 C 3,6 C 9,7 km/h
12.12.2015 07:00 9,7 C 65 % 1025,0 hPa 0,0 l/m 7,8 km/h S 3,4 C 8,7 C 4,3 km/h
12.12.2015 08:00 8,8 C 68 % 1025,1 hPa 0,0 l/m 4,5 km/h S-SW 3,2 C 8,8 C 2,5 km/h
12.12.2015 09:00 11,4 C 66 % 1025,0 hPa 0,0 l/m 7,8 km/h SW 5,3 C 10,5 C 4,3 km/h
12.12.2015 10:00 13,6 C 62 % 1025,1 hPa 0,0 l/m 15,6 km/h SW 6,5 C 9,3 C 8,6 km/h
12.12.2015 11:00 12,9 C 65 % 1024,5 hPa 0,0 l/m 24,6 km/h SW 6,5 C 5,9 C 13,7 km/h
12.12.2015 12:00 12,3 C 67 % 1023,8 hPa 0,0 l/m 23,3 km/h W-SW 6,4 C 5,4 C 13,0 km/h
12.12.2015 13:00 12,2 C 67 % 1023,4 hPa 0,0 l/m 14,9 km/h W-SW 6,3 C 7,8 C 8,3 km/h
12.12.2015 14:00 11,9 C 68 % 1022,8 hPa 0,0 l/m 14,9 km/h W-SW 6,2 C 7,5 C 8,3 km/h
12.12.2015 15:00 11,5 C 67 % 1022,4 hPa 0,0 l/m 9,7 km/h W-SW 5,6 C 9,4 C 5,4 km/h
12.12.2015 16:00 10,1 C 70 % 1022,2 hPa 0,0 l/m 1,9 km/h S-SO 4,9 C 10,1 C 1,1 km/h
12.12.2015 17:00 6,9 C 75 % 1022,0 hPa 0,0 l/m 0,0 km/h S-SO 2,8 C 6,9 C 0,0 km/h
12.12.2015 18:00 4,4 C 82 % 1021,7 hPa 0,0 l/m 0,0 km/h SO 1,6 C 4,4 C 0,0 km/h
12.12.2015 19:00 3,8 C 85 % 1021,8 hPa 0,0 l/m 0,0 km/h SO 1,5 C 3,8 C 0,0 km/h
12.12.2015 20:00 3,5 C 87 % 1021,4 hPa 0,0 l/m 7,1 km/h SO 1,5 C 2,8 C 4,0 km/h
12.12.2015 21:00 3,1 C 88 % 1021,3 hPa 0,0 l/m 0,0 km/h O-SO 1,3 C 3,1 C 0,0 km/h
12.12.2015 22:00 2,6 C 88 % 1020,9 hPa 0,0 l/m 0,0 km/h O-SO 0,8 C 2,6 C 0,0 km/h
12.12.2015 23:00 1,8 C 88 % 1020,8 hPa 0,0 l/m 0,0 km/h O-SO 0,0 C 1,8 C 0,0 km/h
13.12.2015 00:00 1,6 C 88 % 1020,3 hPa 0,0 l/m 0,0 km/h O-SO -0,2 C 1,6 C 0,0 km/h
13.12.2015 01:00 1,0 C 88 % 1020,3 hPa 0,0 l/m 0,0 km/h O-SO -0,8 C 1,0 C 0,0 km/h
13.12.2015 02:00 1,6 C 88 % 1020,3 hPa 0,0 l/m 0,0 km/h O-SO -0,2 C 1,6 C 0,0 km/h
13.12.2015 03:00 1,9 C 88 % 1020,1 hPa 0,0 l/m 0,0 km/h O-SO 0,1 C 1,9 C 0,0 km/h
13.12.2015 04:00 3,1 C 88 % 1019,8 hPa 0,0 l/m 0,0 km/h O-SO 1,3 C 3,1 C 0,0 km/h
13.12.2015 05:00 3,8 C 87 % 1020,2 hPa 0,0 l/m 0,0 km/h SO 1,8 C 3,8 C 0,0 km/h
13.12.2015 06:00 4,4 C 88 % 1020,4 hPa 0,0 l/m 0,0 km/h SO 2,6 C 4,4 C 0,0 km/h
13.12.2015 07:00 4,6 C 88 % 1020,5 hPa 0,0 l/m 0,0 km/h SO 2,8 C 4,6 C 0,0 km/h
13.12.2015 08:00 4,9 C 88 % 1020,6 hPa 0,0 l/m 0,0 km/h SO 3,1 C 4,9 C 0,0 km/h
13.12.2015 09:00 6,1 C 88 % 1020,6 hPa 0,0 l/m 0,0 km/h O 4,3 C 6,1 C 0,0 km/h
13.12.2015 10:00 12,9 C 86 % 1021,0 hPa 0,0 l/m 0,0 km/h W 10,6 C 12,9 C 0,0 km/h
13.12.2015 11:00 15,2 C 61 % 1020,7 hPa 0,0 l/m 0,0 km/h W-NW 7,7 C 15,2 C 0,0 km/h
13.12.2015 12:00 13,9 C 59 % 1020,4 hPa 0,0 l/m 3,2 km/h W 6,0 C 13,9 C 1,8 km/h
13.12.2015 13:00 13,9 C 58 % 1019,9 hPa 0,0 l/m 5,2 km/h W 5,8 C 13,9 C 2,9 km/h
13.12.2015 14:00 14,4 C 57 % 1019,5 hPa 0,0 l/m 0,0 km/h W 6,0 C 14,4 C 0,0 km/h
13.12.2015 15:00 11,4 C 62 % 1019,6 hPa 0,0 l/m 0,0 km/h S 4,4 C 11,4 C 0,0 km/h
13.12.2015 16:00 5,8 C 75 % 1019,8 hPa 0,0 l/m 0,0 km/h S-SO 1,7 C 5,8 C 0,0 km/h
13.12.2015 17:00 3,9 C 82 % 1020,0 hPa 0,0 l/m 0,0 km/h O-SO 1,1 C 3,9 C 0,0 km/h
13.12.2015 18:00 3,3 C 86 % 1020,2 hPa 0,0 l/m 0,0 km/h SO 1,2 C 3,3 C 0,0 km/h
13.12.2015 19:00 2,6 C 87 % 1020,4 hPa 0,0 l/m 0,0 km/h O-NO 0,7 C 2,6 C 0,0 km/h
13.12.2015 20:00 1,9 C 88 % 1020,5 hPa 0,0 l/m 0,0 km/h O 0,1 C 1,9 C 0,0 km/h
13.12.2015 21:00 1,8 C 88 % 1020,3 hPa 0,0 l/m 0,0 km/h O-SO 0,0 C 1,8 C 0,0 km/h
13.12.2015 22:00 1,6 C 88 % 1020,4 hPa 0,0 l/m 0,0 km/h O-SO -0,2 C 1,6 C 0,0 km/h
13.12.2015 23:00 0,7 C 89 % 1020,4 hPa 0,0 l/m 0,0 km/h O-SO -0,9 C 0,7 C 0,0 km/h
Min-Datum _ 10.12.15 07.12.15 13.12.15 - 07.12.15 - 10.12.15 09.12.15 07.12.15
_ Min-Zeit 08:42 15:42 14:42 - 00:42 - 08:42 18:42 00:42
Minimum _ -2,7 C 45 % 1019,5 hPa - 0,0 km/h - -4,6 C -5,5 C 0,0 km/h
Max-Datum _ 07.12.15 08.12.15 09.12.15 09.12.15 11.12.15 - 07.12.15 07.12.15 11.12.15
_ Max-Zeit 15:42 03:42 18:42 05:42 17:42 - 13:42 15:42 17:42
Maximum _ 23,3 C 89 % 1037,3 hPa 2,5 l/m 32,4 km/h
S-SW
- 11,7 C 23,3 C 18,0 km/h
S-SW
Durchschnitt _ 6,7 C 79 % 1028,1 hPa #5,4 l/m 3,3 km/h O-SO 3,1 C 5,7 C 1,8 km/h
www.sexauwetter.de